createdAt,value
2018-08-22T00:00:40.802Z,1009.43
2018-08-22T00:01:40.855Z,1009.40
2018-08-22T00:02:40.739Z,1009.42
2018-08-22T00:03:40.738Z,1009.42
2018-08-22T00:04:40.840Z,1009.45
2018-08-22T00:05:40.868Z,1009.39
2018-08-22T00:06:40.760Z,1009.40
2018-08-22T00:07:40.823Z,1009.44
2018-08-22T00:08:40.872Z,1009.38
2018-08-22T00:09:40.764Z,1009.37
2018-08-22T00:10:40.824Z,1009.34
2018-08-22T00:11:40.748Z,1009.36
2018-08-22T00:12:40.780Z,1009.36
2018-08-22T00:13:40.851Z,1009.34
2018-08-22T00:14:40.767Z,1009.31
2018-08-22T00:15:40.899Z,1009.33
2018-08-22T00:16:40.952Z,1009.36
2018-08-22T00:17:40.832Z,1009.31
2018-08-22T00:18:40.871Z,1009.31
2018-08-22T00:19:40.875Z,1009.29
2018-08-22T00:20:40.838Z,1009.29
2018-08-22T00:21:40.887Z,1009.28
2018-08-22T00:22:40.888Z,1009.29
2018-08-22T00:23:40.891Z,1009.29
2018-08-22T00:24:40.914Z,1009.30
2018-08-22T00:25:40.890Z,1009.34
2018-08-22T00:26:40.893Z,1009.31
2018-08-22T00:27:40.844Z,1009.30
2018-08-22T00:28:40.891Z,1009.27
2018-08-22T00:29:40.827Z,1009.27
2018-08-22T00:30:40.827Z,1009.27
2018-08-22T00:31:40.760Z,1009.30
2018-08-22T00:32:40.814Z,1009.30
2018-08-22T00:33:40.760Z,1009.29
2018-08-22T00:34:40.853Z,1009.27
2018-08-22T00:35:40.756Z,1009.27
2018-08-22T00:36:40.780Z,1009.27
2018-08-22T00:37:40.855Z,1009.27
2018-08-22T00:38:40.796Z,1009.28
2018-08-22T00:39:40.791Z,1009.29
2018-08-22T00:40:40.762Z,1009.28
2018-08-22T00:41:40.899Z,1009.27
2018-08-22T00:42:40.892Z,1009.24
2018-08-22T00:43:40.798Z,1009.27
2018-08-22T00:44:40.854Z,1009.24
2018-08-22T00:45:40.859Z,1009.21
2018-08-22T00:46:40.811Z,1009.27
2018-08-22T00:47:40.806Z,1009.21
2018-08-22T00:48:40.858Z,1009.24
2018-08-22T00:49:40.849Z,1009.25
2018-08-22T00:50:40.895Z,1009.23
2018-08-22T00:51:40.808Z,1009.24
2018-08-22T00:52:40.841Z,1009.24
2018-08-22T00:53:40.771Z,1009.21
2018-08-22T00:54:40.879Z,1009.22
2018-08-22T00:55:40.811Z,1009.15
2018-08-22T00:56:40.812Z,1009.19
2018-08-22T00:57:40.842Z,1009.18
2018-08-22T00:58:40.898Z,1009.19
2018-08-22T00:59:40.883Z,1009.14
2018-08-22T01:00:40.862Z,1009.14
2018-08-22T01:01:40.922Z,1009.17
2018-08-22T01:02:40.842Z,1009.14
2018-08-22T01:03:40.917Z,1009.20
2018-08-22T01:04:40.853Z,1009.18
2018-08-22T01:05:40.918Z,1009.18
2018-08-22T01:06:40.847Z,1009.18
2018-08-22T01:07:40.920Z,1009.17
2018-08-22T01:08:40.853Z,1009.19
2018-08-22T01:09:40.927Z,1009.15
2018-08-22T01:10:40.918Z,1009.17
2018-08-22T01:11:40.852Z,1009.17
2018-08-22T01:12:40.830Z,1009.22
2018-08-22T01:13:40.829Z,1009.20
2018-08-22T01:14:40.917Z,1009.21
2018-08-22T01:15:40.825Z,1009.19
2018-08-22T01:16:40.806Z,1009.16
2018-08-22T01:17:40.860Z,1009.12
2018-08-22T01:18:40.824Z,1009.10
2018-08-22T01:19:40.813Z,1009.07
2018-08-22T01:20:40.917Z,1009.10
2018-08-22T01:21:40.888Z,1009.09
2018-08-22T01:22:40.930Z,1009.09
2018-08-22T01:23:40.933Z,1009.07
2018-08-22T01:24:40.891Z,1009.09
2018-08-22T01:25:40.878Z,1009.12
2018-08-22T01:26:40.933Z,1009.10
2018-08-22T01:27:40.933Z,1009.09
2018-08-22T01:28:40.864Z,1009.07
2018-08-22T01:29:40.940Z,1009.05
2018-08-22T01:30:40.877Z,1009.09
2018-08-22T01:31:40.828Z,1009.08
2018-08-22T01:32:40.806Z,1009.03
2018-08-22T01:33:40.892Z,1009.05
2018-08-22T01:34:40.884Z,1008.99
2018-08-22T01:35:40.923Z,1009.02
2018-08-22T01:36:40.890Z,1009.03
2018-08-22T01:37:40.814Z,1008.98
2018-08-22T01:38:40.799Z,1009.05
2018-08-22T01:39:40.897Z,1009.03
2018-08-22T01:40:40.947Z,1009.04
2018-08-22T01:41:40.925Z,1009.05
2018-08-22T01:42:40.900Z,1008.99
2018-08-22T01:43:40.897Z,1009.01
2018-08-22T01:44:40.838Z,1009.01
2018-08-22T01:45:40.873Z,1008.99
2018-08-22T01:46:40.839Z,1009.03
2018-08-22T01:47:40.908Z,1009.01
2018-08-22T01:48:40.911Z,1009.00
2018-08-22T01:49:40.889Z,1009.04
2018-08-22T01:50:40.895Z,1009.01
2018-08-22T01:51:40.901Z,1009.04
2018-08-22T01:52:40.900Z,1009.01
2018-08-22T01:53:40.876Z,1009.05
2018-08-22T01:54:40.900Z,1009.03
2018-08-22T01:55:40.911Z,1009.03
2018-08-22T01:56:40.834Z,1009.06
2018-08-22T01:57:40.862Z,1009.02
2018-08-22T01:58:40.929Z,1009.07
2018-08-22T01:59:40.885Z,1009.04
2018-08-22T02:00:40.938Z,1009.05
2018-08-22T02:01:40.959Z,1008.99
2018-08-22T02:02:40.884Z,1009.02
2018-08-22T02:03:40.959Z,1009.00
2018-08-22T02:04:40.891Z,1008.99
2018-08-22T02:05:40.960Z,1008.93
2018-08-22T02:06:40.934Z,1008.94
2018-08-22T02:07:40.950Z,1008.94
2018-08-22T02:08:40.897Z,1008.90
2018-08-22T02:09:40.963Z,1008.90
2018-08-22T02:10:40.963Z,1008.90
2018-08-22T02:11:40.922Z,1008.91
2018-08-22T02:12:40.925Z,1008.91
2018-08-22T02:13:40.861Z,1008.94
2018-08-22T02:14:40.852Z,1008.92
2018-08-22T02:15:40.938Z,1008.89
2018-08-22T02:16:40.926Z,1008.90
2018-08-22T02:17:40.925Z,1008.84
2018-08-22T02:18:40.896Z,1008.95
2018-08-22T02:19:40.954Z,1008.91
2018-08-22T02:20:40.933Z,1008.93
2018-08-22T02:21:40.853Z,1008.93
2018-08-22T02:22:40.905Z,1008.92
2018-08-22T02:23:40.976Z,1008.91
2018-08-22T02:24:40.978Z,1008.93
2018-08-22T02:25:40.978Z,1008.92
2018-08-22T02:26:41.027Z,1008.88
2018-08-22T02:27:40.911Z,1008.87
2018-08-22T02:28:40.977Z,1008.90
2018-08-22T02:29:40.911Z,1008.88
2018-08-22T02:30:40.977Z,1008.89
2018-08-22T02:31:40.983Z,1008.92
2018-08-22T02:32:40.921Z,1008.89
2018-08-22T02:33:40.980Z,1008.91
2018-08-22T02:34:40.981Z,1008.93
2018-08-22T02:35:40.913Z,1008.93
2018-08-22T02:36:40.913Z,1008.95
2018-08-22T02:37:40.918Z,1008.95
2018-08-22T02:38:40.918Z,1008.95
2018-08-22T02:39:40.919Z,1008.93
2018-08-22T02:40:40.986Z,1008.94
2018-08-22T02:41:40.917Z,1008.94
2018-08-22T02:42:40.989Z,1008.93
2018-08-22T02:43:40.920Z,1008.95
2018-08-22T02:44:40.986Z,1008.95
2018-08-22T02:45:40.921Z,1008.95
2018-08-22T02:46:40.990Z,1008.95
2018-08-22T02:47:40.990Z,1008.94
2018-08-22T02:48:40.919Z,1008.94
2018-08-22T02:49:40.993Z,1008.92
2018-08-22T02:50:40.993Z,1008.90
2018-08-22T02:51:40.922Z,1008.90
2018-08-22T02:52:40.993Z,1008.91
2018-08-22T02:53:40.924Z,1008.89
2018-08-22T02:54:41.002Z,1008.87
2018-08-22T02:55:41.038Z,1008.83
2018-08-22T02:56:40.928Z,1008.82
2018-08-22T02:57:40.926Z,1008.84
2018-08-22T02:58:40.996Z,1008.85
2018-08-22T02:59:40.930Z,1008.83
2018-08-22T03:00:40.929Z,1008.82
2018-08-22T03:01:40.999Z,1008.86
2018-08-22T03:02:41.003Z,1008.83
2018-08-22T03:03:41.002Z,1008.84
2018-08-22T03:04:40.933Z,1008.83
2018-08-22T03:05:41.165Z,1008.83
2018-08-22T03:06:40.955Z,1008.85
2018-08-22T03:07:41.003Z,1008.84
2018-08-22T03:08:41.004Z,1008.83
2018-08-22T03:09:41.028Z,1008.82
2018-08-22T03:10:40.932Z,1008.83
2018-08-22T03:11:41.007Z,1008.78
2018-08-22T03:12:40.966Z,1008.77
2018-08-22T03:13:41.006Z,1008.78
2018-08-22T03:14:41.008Z,1008.75
2018-08-22T03:15:40.939Z,1008.76
2018-08-22T03:16:41.012Z,1008.78
2018-08-22T03:17:41.014Z,1008.75
2018-08-22T03:18:40.964Z,1008.76
2018-08-22T03:19:41.013Z,1008.73
2018-08-22T03:20:41.012Z,1008.74
2018-08-22T03:21:40.973Z,1008.72
2018-08-22T03:22:40.921Z,1008.73
2018-08-22T03:23:40.924Z,1008.72
2018-08-22T03:24:40.902Z,1008.74
2018-08-22T03:25:40.887Z,1008.72
2018-08-22T03:26:41.002Z,1008.68
2018-08-22T03:27:40.878Z,1008.68
2018-08-22T03:28:40.969Z,1008.66
2018-08-22T03:29:40.882Z,1008.65
2018-08-22T03:30:40.882Z,1008.63
2018-08-22T03:31:40.947Z,1008.69
2018-08-22T03:32:40.998Z,1008.71
2018-08-22T03:33:40.911Z,1008.73
2018-08-22T03:34:41.004Z,1008.69
2018-08-22T03:35:40.981Z,1008.69
2018-08-22T03:36:41.054Z,1008.68
2018-08-22T03:37:40.893Z,1008.68
2018-08-22T03:38:41.005Z,1008.70
2018-08-22T03:39:40.881Z,1008.71
2018-08-22T03:40:41.016Z,1008.70
2018-08-22T03:41:41.026Z,1008.66
2018-08-22T03:42:40.961Z,1008.63
2018-08-22T03:43:41.041Z,1008.62
2018-08-22T03:44:41.029Z,1008.65
2018-08-22T03:45:41.032Z,1008.61
2018-08-22T03:46:41.030Z,1008.65
2018-08-22T03:47:41.032Z,1008.69
2018-08-22T03:48:40.961Z,1008.64
2018-08-22T03:49:41.034Z,1008.66
2018-08-22T03:50:41.034Z,1008.73
2018-08-22T03:51:41.033Z,1008.66
2018-08-22T03:52:41.036Z,1008.68
2018-08-22T03:53:40.999Z,1008.70
2018-08-22T03:54:41.041Z,1008.65
2018-08-22T03:55:41.042Z,1008.63
2018-08-22T03:56:41.037Z,1008.61
2018-08-22T03:57:40.965Z,1008.64
2018-08-22T03:58:40.991Z,1008.63
2018-08-22T03:59:41.040Z,1008.63
2018-08-22T04:00:40.973Z,1008.67
2018-08-22T04:01:41.033Z,1008.66
2018-08-22T04:02:40.923Z,1008.69
2018-08-22T04:03:41.012Z,1008.68
2018-08-22T04:04:40.905Z,1008.67
2018-08-22T04:05:40.905Z,1008.69
2018-08-22T04:06:41.033Z,1008.68
2018-08-22T04:07:41.037Z,1008.71
2018-08-22T04:08:40.944Z,1008.71
2018-08-22T04:09:41.044Z,1008.71
2018-08-22T04:10:40.946Z,1008.68
2018-08-22T04:11:40.984Z,1008.68
2018-08-22T04:12:40.979Z,1008.66
2018-08-22T04:13:40.975Z,1008.64
2018-08-22T04:14:41.050Z,1008.62
2018-08-22T04:15:40.988Z,1008.62
2018-08-22T04:16:41.052Z,1008.61
2018-08-22T04:17:40.979Z,1008.61
2018-08-22T04:18:41.052Z,1008.64
2018-08-22T04:19:40.991Z,1008.65
2018-08-22T04:20:41.054Z,1008.63
2018-08-22T04:21:41.058Z,1008.64
2018-08-22T04:22:40.989Z,1008.63
2018-08-22T04:23:41.056Z,1008.60
2018-08-22T04:24:41.064Z,1008.64
2018-08-22T04:25:41.059Z,1008.63
2018-08-22T04:26:40.986Z,1008.60
2018-08-22T04:27:41.062Z,1008.63
2018-08-22T04:28:41.059Z,1008.62
2018-08-22T04:29:41.061Z,1008.63
2018-08-22T04:30:40.989Z,1008.65
2018-08-22T04:31:41.064Z,1008.65
2018-08-22T04:32:40.994Z,1008.68
2018-08-22T04:33:41.062Z,1008.65
2018-08-22T04:34:40.993Z,1008.62
2018-08-22T04:35:41.066Z,1008.65
2018-08-22T04:36:41.065Z,1008.66
2018-08-22T04:37:41.066Z,1008.67
2018-08-22T04:38:41.068Z,1008.68
2018-08-22T04:39:40.997Z,1008.64
2018-08-22T04:40:41.000Z,1008.64
2018-08-22T04:41:41.068Z,1008.68
2018-08-22T04:42:40.948Z,1008.66
2018-08-22T04:43:41.032Z,1008.62
2018-08-22T04:44:41.014Z,1008.65
2018-08-22T04:45:41.071Z,1008.66
2018-08-22T04:46:40.974Z,1008.66
2018-08-22T04:47:41.030Z,1008.68
2018-08-22T04:48:40.973Z,1008.71
2018-08-22T04:49:40.969Z,1008.72
2018-08-22T04:50:40.953Z,1008.67
2018-08-22T04:51:40.979Z,1008.69
2018-08-22T04:52:41.036Z,1008.67
2018-08-22T04:53:41.019Z,1008.67
2018-08-22T04:54:40.973Z,1008.66
2018-08-22T04:55:41.023Z,1008.64
2018-08-22T04:56:41.048Z,1008.62
2018-08-22T04:57:41.061Z,1008.63
2018-08-22T04:58:41.045Z,1008.64
2018-08-22T04:59:41.005Z,1008.59
2018-08-22T05:00:40.978Z,1008.60
2018-08-22T05:01:41.087Z,1008.63
2018-08-22T05:02:40.988Z,1008.61
2018-08-22T05:03:40.939Z,1008.65
2018-08-22T05:04:40.968Z,1008.69
2018-08-22T05:05:40.971Z,1008.69
2018-08-22T05:06:40.968Z,1008.65
2018-08-22T05:07:40.955Z,1008.67
2018-08-22T05:08:41.046Z,1008.64
2018-08-22T05:09:41.253Z,1008.66
2018-08-22T05:10:40.999Z,1008.65
2018-08-22T05:11:40.972Z,1008.64
2018-08-22T05:12:41.013Z,1008.63
2018-08-22T05:13:41.017Z,1008.70
2018-08-22T05:14:41.021Z,1008.68
2018-08-22T05:15:41.048Z,1008.67
2018-08-22T05:16:41.092Z,1008.62
2018-08-22T05:17:41.020Z,1008.63
2018-08-22T05:18:41.093Z,1008.64
2018-08-22T05:19:41.019Z,1008.62
2018-08-22T05:20:41.096Z,1008.65
2018-08-22T05:21:41.026Z,1008.61
2018-08-22T05:22:40.960Z,1008.61
2018-08-22T05:23:40.993Z,1008.61
2018-08-22T05:24:41.092Z,1008.63
2018-08-22T05:25:41.066Z,1008.60
2018-08-22T05:26:40.999Z,1008.60
2018-08-22T05:27:41.046Z,1008.60
2018-08-22T05:28:41.101Z,1008.57
2018-08-22T05:29:40.959Z,1008.57
2018-08-22T05:30:41.108Z,1008.60
2018-08-22T05:31:41.154Z,1008.65
2018-08-22T05:32:41.069Z,1008.66
2018-08-22T05:33:41.031Z,1008.61
2018-08-22T05:34:41.002Z,1008.62
2018-08-22T05:35:41.081Z,1008.61
2018-08-22T05:36:41.065Z,1008.60
2018-08-22T05:37:41.005Z,1008.58
2018-08-22T05:38:40.987Z,1008.60
2018-08-22T05:39:41.098Z,1008.60
2018-08-22T05:40:41.020Z,1008.62
2018-08-22T05:41:41.111Z,1008.62
2018-08-22T05:42:40.939Z,1008.63
2018-08-22T05:43:41.001Z,1008.61
2018-08-22T05:44:41.005Z,1008.62
2018-08-22T05:45:41.057Z,1008.58
2018-08-22T05:46:41.054Z,1008.58
2018-08-22T05:47:41.010Z,1008.58
2018-08-22T05:48:41.066Z,1008.56
2018-08-22T05:49:41.007Z,1008.56
2018-08-22T05:50:41.011Z,1008.58
2018-08-22T05:51:41.002Z,1008.56
2018-08-22T05:52:41.315Z,1008.59
2018-08-22T05:53:41.106Z,1008.57
2018-08-22T05:54:41.093Z,1008.57
2018-08-22T05:55:41.118Z,1008.60
2018-08-22T05:56:41.104Z,1008.58
2018-08-22T05:57:41.188Z,1008.55
2018-08-22T05:58:40.997Z,1008.57
2018-08-22T05:59:40.984Z,1008.55
2018-08-22T06:00:41.050Z,1008.54
2018-08-22T06:01:41.064Z,1008.52
2018-08-22T06:02:41.122Z,1008.51
2018-08-22T06:03:41.128Z,1008.51
2018-08-22T06:04:41.149Z,1008.53
2018-08-22T06:05:41.059Z,1008.55
2018-08-22T06:06:41.127Z,1008.52
2018-08-22T06:07:41.056Z,1008.51
2018-08-22T06:08:41.056Z,1008.54
2018-08-22T06:09:41.054Z,1008.52
2018-08-22T06:10:41.059Z,1008.53
2018-08-22T06:11:41.059Z,1008.53
2018-08-22T06:12:41.132Z,1008.57
2018-08-22T06:13:41.059Z,1008.53
2018-08-22T06:14:41.135Z,1008.55
2018-08-22T06:15:41.102Z,1008.54
2018-08-22T06:16:41.136Z,1008.54
2018-08-22T06:17:41.133Z,1008.55
2018-08-22T06:18:41.058Z,1008.53
2018-08-22T06:19:41.137Z,1008.51
2018-08-22T06:20:41.068Z,1008.51
2018-08-22T06:21:41.137Z,1008.52
2018-08-22T06:22:41.062Z,1008.54
2018-08-22T06:23:41.140Z,1008.51
2018-08-22T06:24:41.070Z,1008.50
2018-08-22T06:25:41.211Z,1008.49
2018-08-22T06:26:41.144Z,1008.50
2018-08-22T06:27:41.144Z,1008.51
2018-08-22T06:28:41.072Z,1008.49
2018-08-22T06:29:41.143Z,1008.53
2018-08-22T06:30:41.080Z,1008.53
2018-08-22T06:31:41.146Z,1008.53
2018-08-22T06:32:41.079Z,1008.54
2018-08-22T06:33:41.152Z,1008.53
2018-08-22T06:34:41.072Z,1008.50
2018-08-22T06:35:41.149Z,1008.54
2018-08-22T06:36:41.146Z,1008.48
2018-08-22T06:37:41.165Z,1008.49
2018-08-22T06:38:41.072Z,1008.45
2018-08-22T06:39:41.077Z,1008.48
2018-08-22T06:40:41.151Z,1008.44
2018-08-22T06:41:41.121Z,1008.46
2018-08-22T06:42:41.109Z,1008.43
2018-08-22T06:43:41.019Z,1008.44
2018-08-22T06:44:41.021Z,1008.36
2018-08-22T06:45:41.047Z,1008.39
2018-08-22T06:46:41.054Z,1008.38
2018-08-22T06:47:41.020Z,1008.40
2018-08-22T06:48:41.104Z,1008.40
2018-08-22T06:49:41.112Z,1008.41
2018-08-22T06:50:41.116Z,1008.41
2018-08-22T06:51:41.025Z,1008.37
2018-08-22T06:52:41.160Z,1008.30
2018-08-22T06:53:41.082Z,1008.32
2018-08-22T06:54:41.158Z,1008.27
2018-08-22T06:55:41.326Z,1008.29
2018-08-22T06:56:41.099Z,1008.26
2018-08-22T06:57:41.166Z,1008.32
2018-08-22T06:58:41.089Z,1008.32
2018-08-22T06:59:41.164Z,1008.30
2018-08-22T07:00:41.119Z,1008.29
2018-08-22T07:01:41.134Z,1008.29
2018-08-22T07:02:41.130Z,1008.32
2018-08-22T07:03:41.066Z,1008.32
2018-08-22T07:04:41.157Z,1008.24
2018-08-22T07:05:41.132Z,1008.26
2018-08-22T07:06:41.110Z,1008.24
2018-08-22T07:07:41.071Z,1008.24
2018-08-22T07:08:41.082Z,1008.26
2018-08-22T07:09:41.170Z,1008.23
2018-08-22T07:10:41.125Z,1008.19
2018-08-22T07:11:41.083Z,1008.21
2018-08-22T07:12:41.166Z,1008.20
2018-08-22T07:13:41.172Z,1008.23
2018-08-22T07:14:41.117Z,1008.20
2018-08-22T07:15:41.137Z,1008.21
2018-08-22T07:16:41.141Z,1008.19
2018-08-22T07:17:41.057Z,1008.17
2018-08-22T07:18:41.182Z,1008.20
2018-08-22T07:19:41.146Z,1008.17
2018-08-22T07:20:41.216Z,1008.16
2018-08-22T07:21:41.080Z,1008.23
2018-08-22T07:22:41.106Z,1008.23
2018-08-22T07:23:41.095Z,1008.23
2018-08-22T07:24:41.182Z,1008.19
2018-08-22T07:25:41.183Z,1008.18
2018-08-22T07:26:41.184Z,1008.17
2018-08-22T07:27:41.111Z,1008.15
2018-08-22T07:28:41.190Z,1008.16
2018-08-22T07:29:41.187Z,1008.16
2018-08-22T07:30:41.115Z,1008.14
2018-08-22T07:31:41.187Z,1008.13
2018-08-22T07:32:41.114Z,1008.10
2018-08-22T07:33:41.189Z,1008.12
2018-08-22T07:34:41.118Z,1008.14
2018-08-22T07:35:41.247Z,1008.14
2018-08-22T07:36:41.115Z,1008.15
2018-08-22T07:37:41.189Z,1008.11
2018-08-22T07:38:41.218Z,1008.13
2018-08-22T07:39:41.193Z,1008.11
2018-08-22T07:40:41.191Z,1008.15
2018-08-22T07:41:41.121Z,1008.16
2018-08-22T07:42:41.080Z,1008.12
2018-08-22T07:43:41.123Z,1008.13
2018-08-22T07:44:41.195Z,1008.10
2018-08-22T07:45:41.147Z,1008.06
2018-08-22T07:46:41.199Z,1008.08
2018-08-22T07:47:41.126Z,1008.06
2018-08-22T07:48:41.195Z,1008.09
2018-08-22T07:49:41.123Z,1008.08
2018-08-22T07:50:41.212Z,1008.10
2018-08-22T07:51:41.200Z,1008.12
2018-08-22T07:52:41.141Z,1008.05
2018-08-22T07:53:41.170Z,1008.14
2018-08-22T07:54:41.171Z,1008.12
2018-08-22T07:55:41.102Z,1008.08
2018-08-22T07:56:41.110Z,1008.11
2018-08-22T07:57:41.077Z,1008.09
2018-08-22T07:58:41.134Z,1008.12
2018-08-22T07:59:41.139Z,1008.08
2018-08-22T08:00:41.194Z,1008.12
2018-08-22T08:01:41.096Z,1008.05
2018-08-22T08:02:41.133Z,1008.08
2018-08-22T08:03:41.212Z,1008.04
2018-08-22T08:04:41.237Z,1008.07
2018-08-22T08:05:41.139Z,1007.99
2018-08-22T08:06:41.214Z,1008.02
2018-08-22T08:07:41.137Z,1008.02
2018-08-22T08:08:41.235Z,1008.04
2018-08-22T08:09:41.141Z,1008.00
2018-08-22T08:10:41.215Z,1008.01
2018-08-22T08:11:41.140Z,1007.99
2018-08-22T08:12:41.215Z,1008.01
2018-08-22T08:13:41.152Z,1008.01
2018-08-22T08:14:41.214Z,1008.02
2018-08-22T08:15:41.149Z,1008.01
2018-08-22T08:16:41.280Z,1007.97
2018-08-22T08:17:41.137Z,1007.96
2018-08-22T08:18:41.142Z,1007.95
2018-08-22T08:19:41.151Z,1007.96
2018-08-22T08:20:41.222Z,1007.97
2018-08-22T08:21:41.149Z,1007.96
2018-08-22T08:22:41.121Z,1007.91
2018-08-22T08:23:41.187Z,1007.92
2018-08-22T08:24:41.125Z,1007.92
2018-08-22T08:25:41.185Z,1007.90
2018-08-22T08:26:41.110Z,1007.88
2018-08-22T08:27:41.172Z,1007.92
2018-08-22T08:28:41.127Z,1007.90
2018-08-22T08:29:41.155Z,1007.90
2018-08-22T08:30:41.283Z,1007.85
2018-08-22T08:31:41.214Z,1007.84
2018-08-22T08:32:41.172Z,1007.85
2018-08-22T08:33:41.230Z,1007.82
2018-08-22T08:34:41.131Z,1007.79
2018-08-22T08:35:41.164Z,1007.81
2018-08-22T08:36:41.196Z,1007.83
2018-08-22T08:37:41.194Z,1007.81
2018-08-22T08:38:41.141Z,1007.81
2018-08-22T08:39:41.110Z,1007.81
2018-08-22T08:40:41.143Z,1007.78
2018-08-22T08:41:41.214Z,1007.79
2018-08-22T08:42:41.163Z,1007.78
2018-08-22T08:43:41.184Z,1007.78
2018-08-22T08:44:41.238Z,1007.76
2018-08-22T08:45:41.161Z,1007.73
2018-08-22T08:46:41.192Z,1007.76
2018-08-22T08:47:41.171Z,1007.70
2018-08-22T08:48:41.241Z,1007.75
2018-08-22T08:49:41.215Z,1007.74
2018-08-22T08:50:41.169Z,1007.73
2018-08-22T08:51:41.244Z,1007.71
2018-08-22T08:52:41.169Z,1007.71
2018-08-22T08:53:41.246Z,1007.68
2018-08-22T08:54:41.245Z,1007.70
2018-08-22T08:55:41.168Z,1007.65
2018-08-22T08:56:41.175Z,1007.67
2018-08-22T08:57:41.249Z,1007.65
2018-08-22T08:58:41.172Z,1007.63
2018-08-22T08:59:41.171Z,1007.63
2018-08-22T09:00:41.245Z,1007.59
2018-08-22T09:01:41.211Z,1007.59
2018-08-22T09:02:41.153Z,1007.61
2018-08-22T09:03:41.135Z,1007.61
2018-08-22T09:04:41.180Z,1007.58
2018-08-22T09:05:41.158Z,1007.59
2018-08-22T09:06:41.285Z,1007.54
2018-08-22T09:07:41.152Z,1007.52
2018-08-22T09:08:41.224Z,1007.50
2018-08-22T09:09:41.220Z,1007.45
2018-08-22T09:10:41.186Z,1007.45
2018-08-22T09:11:41.180Z,1007.40
2018-08-22T09:12:41.180Z,1007.38
2018-08-22T09:13:41.257Z,1007.39
2018-08-22T09:14:41.183Z,1007.43
2018-08-22T09:15:41.340Z,1007.38
2018-08-22T09:16:41.261Z,1007.40
2018-08-22T09:17:41.186Z,1007.34
2018-08-22T09:18:41.262Z,1007.31
2018-08-22T09:19:41.190Z,1007.30
2018-08-22T09:20:41.271Z,1007.35
2018-08-22T09:21:41.267Z,1007.30
2018-08-22T09:22:41.189Z,1007.31
2018-08-22T09:23:41.191Z,1007.27
2018-08-22T09:24:41.270Z,1007.26
2018-08-22T09:25:41.192Z,1007.20
2018-08-22T09:26:41.267Z,1007.17
2018-08-22T09:27:41.194Z,1007.18
2018-08-22T09:28:41.269Z,1007.14
2018-08-22T09:29:41.296Z,1007.16
2018-08-22T09:30:41.286Z,1007.16
2018-08-22T09:31:41.201Z,1007.08
2018-08-22T09:32:41.147Z,1007.07
2018-08-22T09:33:41.244Z,1007.05
2018-08-22T09:34:41.154Z,1007.08
2018-08-22T09:35:41.195Z,1007.08
2018-08-22T09:36:41.149Z,1007.06
2018-08-22T09:37:41.201Z,1007.04
2018-08-22T09:38:41.441Z,1007.04
2018-08-22T09:39:41.202Z,1007.00
2018-08-22T09:40:41.264Z,1006.99
2018-08-22T09:41:41.204Z,1006.99
2018-08-22T09:42:41.284Z,1007.00
2018-08-22T09:43:41.207Z,1006.98
2018-08-22T09:44:41.279Z,1006.99
2018-08-22T09:45:41.207Z,1006.96
2018-08-22T09:46:41.314Z,1007.00
2018-08-22T09:47:41.212Z,1007.02
2018-08-22T09:48:41.218Z,1006.99
2018-08-22T09:49:41.287Z,1006.92
2018-08-22T09:50:41.213Z,1006.93
2018-08-22T09:51:41.210Z,1006.89
2018-08-22T09:52:41.214Z,1006.93
2018-08-22T09:53:41.288Z,1006.92
2018-08-22T09:54:41.266Z,1006.90
2018-08-22T09:55:41.296Z,1006.91
2018-08-22T09:56:41.217Z,1006.88
2018-08-22T09:57:41.292Z,1006.84
2018-08-22T09:58:41.214Z,1006.84
2018-08-22T09:59:41.290Z,1006.79
2018-08-22T10:00:41.270Z,1006.78
2018-08-22T10:01:41.217Z,1006.78
2018-08-22T10:02:41.217Z,1006.75
2018-08-22T10:03:41.315Z,1006.75
2018-08-22T10:04:41.274Z,1006.75
2018-08-22T10:05:41.203Z,1006.76
2018-08-22T10:06:41.432Z,1006.77
2018-08-22T10:07:41.188Z,1006.79
2018-08-22T10:08:41.177Z,1006.78
2018-08-22T10:09:41.169Z,1006.79
2018-08-22T10:10:41.185Z,1006.80
2018-08-22T10:11:41.198Z,1006.78
2018-08-22T10:12:41.254Z,1006.75
2018-08-22T10:13:41.181Z,1006.77
2018-08-22T10:14:41.226Z,1006.73
2018-08-22T10:15:41.169Z,1006.70
2018-08-22T10:16:41.160Z,1006.69
2018-08-22T10:17:41.245Z,1006.67
2018-08-22T10:18:41.230Z,1006.67
2018-08-22T10:19:41.324Z,1006.63
2018-08-22T10:20:41.210Z,1006.60
2018-08-22T10:21:41.172Z,1006.54
2018-08-22T10:22:41.175Z,1006.58
2018-08-22T10:23:41.190Z,1006.58
2018-08-22T10:24:41.142Z,1006.56
2018-08-22T10:25:41.168Z,1006.50
2018-08-22T10:26:41.357Z,1006.49
2018-08-22T10:27:41.270Z,1006.49
2018-08-22T10:28:41.259Z,1006.44
2018-08-22T10:29:41.193Z,1006.44
2018-08-22T10:30:41.255Z,1006.47
2018-08-22T10:31:41.178Z,1006.44
2018-08-22T10:32:41.301Z,1006.41
2018-08-22T10:33:41.298Z,1006.43
2018-08-22T10:34:41.209Z,1006.40
2018-08-22T10:35:41.271Z,1006.39
2018-08-22T10:36:41.179Z,1006.33
2018-08-22T10:37:41.270Z,1006.30
2018-08-22T10:38:41.295Z,1006.30
2018-08-22T10:39:41.202Z,1006.33
2018-08-22T10:40:41.181Z,1006.33
2018-08-22T10:41:41.353Z,1006.29
2018-08-22T10:42:41.265Z,1006.29
2018-08-22T10:43:41.322Z,1006.29
2018-08-22T10:44:41.254Z,1006.30
2018-08-22T10:45:41.362Z,1006.25
2018-08-22T10:46:41.249Z,1006.23
2018-08-22T10:47:41.327Z,1006.24
2018-08-22T10:48:41.256Z,1006.20
2018-08-22T10:49:41.327Z,1006.20
2018-08-22T10:50:41.452Z,1006.22
2018-08-22T10:51:41.253Z,1006.22
2018-08-22T10:52:41.256Z,1006.25
2018-08-22T10:53:41.218Z,1006.20
2018-08-22T10:54:41.270Z,1006.19
2018-08-22T10:55:41.255Z,1006.22
2018-08-22T10:56:41.293Z,1006.19
2018-08-22T10:57:41.196Z,1006.20
2018-08-22T10:58:41.197Z,1006.22
2018-08-22T10:59:41.285Z,1006.26
2018-08-22T11:00:41.282Z,1006.24
2018-08-22T11:01:41.276Z,1006.26
2018-08-22T11:02:41.292Z,1006.25
2018-08-22T11:03:41.259Z,1006.21
2018-08-22T11:04:41.231Z,1006.19
2018-08-22T11:05:41.263Z,1006.23
2018-08-22T11:06:41.266Z,1006.21
2018-08-22T11:07:41.337Z,1006.18
2018-08-22T11:08:41.264Z,1006.16
2018-08-22T11:09:41.342Z,1006.14
2018-08-22T11:10:41.337Z,1006.17
2018-08-22T11:11:41.272Z,1006.19
2018-08-22T11:12:41.339Z,1006.18
2018-08-22T11:13:41.241Z,1006.12
2018-08-22T11:14:41.307Z,1006.12
2018-08-22T11:15:41.235Z,1006.14
2018-08-22T11:16:41.280Z,1006.05
2018-08-22T11:17:41.312Z,1006.08
2018-08-22T11:18:41.335Z,1006.04
2018-08-22T11:19:41.307Z,1006.08
2018-08-22T11:20:41.331Z,1006.09
2018-08-22T11:21:41.204Z,1006.07
2018-08-22T11:22:41.273Z,1006.03
2018-08-22T11:23:41.225Z,1006.03
2018-08-22T11:24:41.250Z,1006.05
2018-08-22T11:25:41.314Z,1006.04
2018-08-22T11:26:41.250Z,1006.00
2018-08-22T11:27:41.340Z,1005.99
2018-08-22T11:28:41.309Z,1005.93
2018-08-22T11:29:41.300Z,1005.95
2018-08-22T11:30:41.301Z,1005.91
2018-08-22T11:31:41.283Z,1005.93
2018-08-22T11:32:41.280Z,1005.87
2018-08-22T11:33:41.282Z,1005.90
2018-08-22T11:34:41.212Z,1005.88
2018-08-22T11:35:41.263Z,1005.86
2018-08-22T11:36:41.311Z,1005.87
2018-08-22T11:37:41.318Z,1005.86
2018-08-22T11:38:41.322Z,1005.84
2018-08-22T11:39:41.303Z,1005.79
2018-08-22T11:40:41.315Z,1005.81
2018-08-22T11:41:41.322Z,1005.73
2018-08-22T11:42:41.315Z,1005.76
2018-08-22T11:43:41.319Z,1005.78
2018-08-22T11:44:41.325Z,1005.77
2018-08-22T11:45:41.309Z,1005.72
2018-08-22T11:46:41.268Z,1005.77
2018-08-22T11:47:41.352Z,1005.68
2018-08-22T11:48:41.242Z,1005.68
2018-08-22T11:49:41.355Z,1005.69
2018-08-22T11:50:41.351Z,1005.65
2018-08-22T11:51:41.352Z,1005.74
2018-08-22T11:52:41.335Z,1005.70
2018-08-22T11:53:41.297Z,1005.73
2018-08-22T11:54:41.374Z,1005.63
2018-08-22T11:55:41.370Z,1005.62
2018-08-22T11:56:41.299Z,1005.61
2018-08-22T11:57:41.373Z,1005.63
2018-08-22T11:58:41.298Z,1005.59
2018-08-22T11:59:41.375Z,1005.65
2018-08-22T12:00:41.375Z,1005.59
2018-08-22T12:01:41.311Z,1005.63
2018-08-22T12:02:41.375Z,1005.67
2018-08-22T12:03:41.308Z,1005.62
2018-08-22T12:04:41.310Z,1005.57
2018-08-22T12:05:41.318Z,1005.56